• Join FlightAware (Why Join?)
  • Login
  • US Flag 
05:23AM EST


 

Airport Tracker/Info


-or-


 

Live Flight TrackerFlight Track Log ✈ FLG3326 ✈ 07-Jun-2013 ✈ KDFW - KMSP

Flight Track Log - Related Links

Times and Time Zones

All times are in EDT time to prevent confusion due to time zone crossing. See the FLG3326 flight status page for this flight to view local times or setup timezone preferences in your user account.

Time Position Orientation Groundspeed Altitude Reporting Facility
EDT Latitude Longitude Course Direction KTS MPH feet Rate Location/Type
07:25PM 32.9167 -97.0500 330° Northwest 167 192 1,200  Level Dallas / Fort Worth TRACON
07:26PM 32.9333 -97.0500 360° North 171 197 2,200 1,860 Climbing Dallas / Fort Worth TRACON
07:27PM 33.0333 -97.0542 358° North 237 273 5,200 2,100 Climbing Fort Worth Center
07:28PM 32.8230 -96.8054 10° North  Level FlightAware Approximate
07:28PM 33.0958 -97.0589 356° North 237 273 7,900  Level Fort Worth Center
07:29PM 32.9328 -96.8000 North  Level FlightAware Approximate
07:29PM 33.1753 -97.0708 353° North 243 280 10,300  Level Fort Worth Center
07:30PM 33.0366 -96.8320 333° Northwest  Level FlightAware Approximate
07:30PM 33.2547 -97.0806 354° North 288 331 11,200  Level Fort Worth Center
07:31PM 33.1329 -96.8958 330° Northwest  Level FlightAware Approximate
07:31PM 33.3486 -97.0950 353° North 327 376 13,300  Level Fort Worth Center
07:32PM 33.4528 -97.0822 North 338 389 15,600 1,800 Climbing Fort Worth Center
07:33PM 33.5425 -97.0594 12° North 353 406 17,000 1,560 Climbing Fort Worth Center
07:34PM 33.6531 -97.0267 14° North 364 419 18,800 1,620 Climbing Fort Worth Center
07:35PM 33.7469 -97.0039 11° North 376 433 20,300 1,500 Climbing Fort Worth Center
07:36PM 33.8575 -96.9733 13° North 383 441 21,800 1,440 Climbing Fort Worth Center
07:37PM 33.9681 -96.9403 14° North 395 455 23,200 1,500 Climbing Fort Worth Center
07:38PM 34.0806 -96.9094 13° North 401 461 24,800 1,620 Climbing Fort Worth Center
07:39PM 34.1972 -96.8836 10° North 396 456 26,500 1,500 Climbing Fort Worth Center
07:40PM 34.3078 -96.8503 14° North 396 456 27,800 960 Climbing Fort Worth Center
07:41PM 34.4244 -96.8194 12° North 403 464 28,500 1,200 Climbing Fort Worth Center
07:42PM 34.5369 -96.7858 14° North 416 479 30,200 1,380 Climbing Fort Worth Center
07:43PM 34.6514 -96.7547 13° North 416 479 31,300 1,020 Climbing Fort Worth Center
07:44PM 34.7661 -96.7208 14° North 416 479 32,300 960 Climbing Fort Worth Center
07:45PM 34.8806 -96.6897 13° North 416 479 33,300 900 Climbing Fort Worth Center
07:46PM 34.9953 -96.6583 13° North 411 473 34,200 840 Climbing Fort Worth Center
07:47PM 35.1097 -96.6242 14° North 411 473 35,000 360 Climbing Fort Worth Center
07:48PM 35.2242 -96.5928 13° North 411 473 35,000  Level Fort Worth Center
07:49PM 35.3408 -96.5586 13° North 416 479 35,000  Level Fort Worth Center
07:51PM 35.5681 -96.4947 13° North 430 495 35,000  Level Kansas City Center
07:52PM 35.6828 -96.4628 13° North 427 491 35,000  Level Kansas City Center
07:54PM 35.8194 -96.4242 13° North 423 487 35,000  Level Kansas City Center
07:55PM 35.9244 -96.3967 12° North 424 488 35,000  Level Kansas City Center
07:56PM 36.0403 -96.3631 13° North 426 490 35,000  Level Kansas City Center
07:57PM 36.1811 -96.3242 13° North 428 493 35,000  Level Kansas City Center
07:58PM 36.2983 -96.2889 14° North 430 495 35,000  Level Kansas City Center
07:59PM 36.4178 -96.2558 13° North 434 499 35,000  Level Kansas City Center
08:00PM 36.5344 -96.2211 13° North 429 494 35,000  Level Kansas City Center
08:01PM 36.6756 -96.1803 13° North 430 495 35,000  Level Kansas City Center
08:02PM 36.7931 -96.1450 14° North 430 495 35,000  Level Kansas City Center
08:03PM 36.9089 -96.1106 13° North 427 491 35,000  Level Kansas City Center
08:04PM 37.0500 -96.0692 13° North 429 494 35,000  Level Kansas City Center
08:05PM 37.1681 -96.0347 13° North 431 496 35,000  Level Kansas City Center
08:06PM 37.2842 -95.9989 14° North 430 495 35,000  Level Kansas City Center
08:07PM 37.4008 -95.9658 13° North 428 493 35,000  Level Kansas City Center
08:08PM 37.5169 -95.9314 13° North 427 491 35,000  Level Kansas City Center
08:09PM 37.6342 -95.8956 14° North 429 494 35,000  Level Kansas City Center
08:10PM 37.7511 -95.8642 12° North 428 493 35,000  Level Kansas City Center
08:11PM 37.8689 -95.8281 14° North 432 497 35,000  Level Kansas City Center
08:12PM 38.0039 -95.7869 13° North 436 502 35,000  Level Kansas City Center
08:13PM 38.1164 -95.7525 14° North 434 499 35,000  Level Kansas City Center
08:14PM 38.2469 -95.7125 14° North 432 497 35,000  Level Kansas City Center
08:15PM 38.3583 -95.6797 13° North 429 494 35,000  Level Kansas City Center
08:16PM 38.4881 -95.6403 13° North 428 493 35,000  Level Kansas City Center
08:17PM 38.5989 -95.6056 14° North 428 493 35,000  Level Kansas City Center
08:19PM 38.7272 -95.5661 13° North 424 488 35,000  Level Kansas City Center
08:20PM 38.8378 -95.5314 14° North 425 489 35,000  Level Kansas City Center
08:21PM 38.9467 -95.4972 14° North 420 483 35,000  Level Kansas City Center
08:22PM 39.0778 -95.4567 14° North 419 482 35,000  Level Kansas City Center
08:23PM 39.1997 -95.4183 14° North 418 481 35,000  Level Kansas City Center
08:24PM 39.3119 -95.3819 14° North 416 479 35,000  Level Kansas City Center
08:25PM 39.4250 -95.3478 13° North 417 480 35,000  Level Kansas City Center
08:26PM 39.5458 -95.3092 14° North 415 478 35,000  Level Kansas City Center
08:27PM 39.6567 -95.2739 14° North 416 479 35,000  Level Kansas City Center
08:28PM 39.7633 -95.2397 14° North 412 474 35,000  Level Kansas City Center
08:29PM 39.8892 -95.2011 13° North 415 478 35,000  Level Kansas City Center
08:30PM 39.9964 -95.1658 14° North 414 476 35,000  Level Kansas City Center
08:31PM 40.1033 -95.1314 14° North 414 476 35,000  Level Kansas City Center
08:31PM 40.1386 -95.1197 14° North 415 478 35,000  Level Minneapolis Center
08:32PM 40.2497 -95.0844 14° North 412 474 35,000  Level Minneapolis Center
08:33PM 40.3619 -95.0478 14° North 414 476 35,000 -120 Level Minneapolis Center
08:34PM 40.4961 -95.0044 14° North 415 478 34,800 -720 Descending Minneapolis Center
08:35PM 40.6103 -94.9669 14° North 420 483 33,600 -1,140 Descending Minneapolis Center
08:36PM 40.7225 -94.9303 14° North 419 482 32,500 -1,020 Descending Minneapolis Center
08:37PM 40.8356 -94.8936 14° North 419 482 31,500 -780 Descending Minneapolis Center
08:38PM 40.9522 -94.8558 14° North 425 489 31,000 -300 Descending Minneapolis Center
08:39PM 41.0708 -94.8164 14° North 435 501 31,000  Level Minneapolis Center
08:40PM 41.2131 -94.7694 14° North 439 505 31,000  Level Minneapolis Center
08:41PM 41.3278 -94.7317 14° North 433 498 31,000  Level Minneapolis Center
08:43PM 41.4428 -94.6933 14° North 429 494 31,000  Level Minneapolis Center
08:44PM 41.5575 -94.6542 14° North 428 493 31,000  Level Minneapolis Center
08:45PM 41.6719 -94.6158 14° North 426 490 31,000  Level Minneapolis Center
08:46PM 41.8108 -94.5703 14° North 428 493 31,000  Level Minneapolis Center
08:47PM 41.9258 -94.5314 14° North 429 494 31,000  Level Minneapolis Center
08:48PM 42.0419 -94.4919 14° North 429 494 31,000  Level Minneapolis Center
08:49PM 42.1572 -94.4519 14° North 430 495 31,000  Level Minneapolis Center
08:50PM 42.2733 -94.4119 14° North 431 496 31,000  Level Minneapolis Center
08:51PM 42.3889 -94.3719 14° North 430 495 31,000  Level Minneapolis Center
08:52PM 42.5244 -94.3247 14° North 424 488 31,000  Level Minneapolis Center
08:53PM 42.6344 -94.2653 22° Northeast 434 499 31,000  Level Minneapolis Center
08:54PM 42.7333 -94.1614 38° Northeast 453 521 31,000  Level Minneapolis Center
08:55PM 42.8306 -94.0619 37° Northeast 446 513 31,000  Level Minneapolis Center
08:56PM 42.9400 -93.9972 23° Northeast 435 501 31,000 -300 Level Minneapolis Center
08:57PM 43.0719 -93.9181 24° Northeast 433 498 30,400 -1,020 Descending Minneapolis Center
08:58PM 43.1825 -93.8525 23° Northeast 435 501 28,900 -1,500 Descending Minneapolis Center
08:59PM 43.2903 -93.7881 24° Northeast 429 494 27,400 -1,500 Descending Minneapolis Center
09:00PM 43.3989 -93.7278 22° Northeast 427 491 25,900 -1,500 Descending Minneapolis Center
09:01PM 43.5097 -93.6956 12° North 413 475 24,400 -1,740 Descending Minneapolis Center
09:02PM 43.6247 -93.6589 13° North 405 466 22,400 -2,100 Descending Minneapolis Center
09:03PM 43.7297 -93.6258 13° North 393 452 20,100 -2,460 Descending Minneapolis Center
09:04PM 43.8528 -93.5867 13° North 382 440 17,400 -2,460 Descending Minneapolis Center
09:05PM 43.9553 -93.5536 13° North 381 438 15,100 -2,280 Descending Minneapolis Center
09:06PM 44.0506 -93.5225 13° North 350 403 12,700 -2,040 Descending Minneapolis Center
09:07PM 44.1419 -93.4944 12° North 337 388 11,000 -840 Descending Minneapolis Center
09:08PM 44.2225 -93.4664 14° North 298 343 11,000  Level Minneapolis Center
09:09PM 44.2967 -93.4164 26° Northeast 296 341 11,000 -900 Level Minneapolis Center
09:10PM 44.3850 -93.3694 21° North 285 328 9,200 -1,560 Descending Minneapolis Center
09:11PM 44.4581 -93.3308 21° North 281 323 7,800 -1,080 Descending Minneapolis Center
09:13PM 44.5300 -93.2919 21° North 278 320 7,000 -1,140 Descending Minneapolis Center
09:14PM 44.6000 -93.2533 21° North 273 314 5,500 -1,260 Descending Minneapolis Center
09:15PM 44.6667 -93.2172 21° North 257 296 4,500 -900 Descending Minneapolis Center
09:16PM 44.7253 -93.1992 12° North 180 207 3,700 -900 Descending Minneapolis Center
09:17PM 44.7717 -93.2119 349° North 178 205 2,700 -1,020 Descending Minneapolis Center